Time;durP1;ratioP1;P1;durP2;ratioP2;P2;SDS_P1;SDS_P2;PMS_P1;PMS_P2;Temp;Humidity;BMP_temperature;BMP_pressure;BME280_temperature;BME280_humidity;BME280_pressure;Samples;Min_cycle;Max_cycle;Signal;HPM_P1;HPM_P2
2023/01/09 00:02:14;;;;;;;0.80;0.50;;;9.50;99.90;;;;;;4992280;28;20462;-72
2023/01/09 00:04:40;;;;;;;0.70;0.60;;;9.60;99.90;;;;;;5004944;28;20405;-73
2023/01/09 00:07:05;;;;;;;1.10;0.60;;;9.60;99.90;;;;;;5011574;28;20451;-73
2023/01/09 00:09:31;;;;;;;1.00;0.60;;;9.70;99.90;;;;;;5011788;28;20393;-74
2023/01/09 00:11:56;;;;;;;0.60;0.50;;;9.70;99.90;;;;;;5010410;28;20890;-73
2023/01/09 00:14:23;;;;;;;0.70;0.60;;;9.70;99.90;;;;;;5009920;28;20474;-73
2023/01/09 00:16:48;;;;;;;2.42;0.80;;;9.80;99.90;;;;;;5011713;28;20385;-73
2023/01/09 00:19:14;;;;;;;0.70;0.60;;;9.80;99.90;;;;;;5011596;28;20810;-73
2023/01/09 00:21:39;;;;;;;0.57;0.57;;;9.70;99.90;;;;;;5001115;28;20395;-73
2023/01/09 00:24:06;;;;;;;0.80;0.40;;;9.90;99.90;;;;;;4990585;28;20398;-72
2023/01/09 00:26:31;;;;;;;0.75;0.60;;;9.90;99.90;;;;;;4991671;28;20394;-73
2023/01/09 00:28:57;;;;;;;1.00;0.60;;;9.80;99.90;;;;;;4991585;28;20445;-73
2023/01/09 00:31:23;;;;;;;0.50;0.50;;;9.90;99.90;;;;;;4996307;28;20389;-72
2023/01/09 00:33:59;;;;;;;0.70;0.50;;;9.90;99.90;;;;;;4990638;28;20880;-72
2023/01/09 00:36:25;;;;;;;0.70;0.60;;;9.60;99.90;;;;;;4991625;28;20391;-73
2023/01/09 00:38:50;;;;;;;0.95;0.60;;;9.40;99.90;;;;;;4991388;28;20691;-73
2023/01/09 00:41:22;;;;;;;0.73;0.63;;;9.30;99.90;;;;;;4991516;28;20387;-72
2023/01/09 00:43:54;;;;;;;0.50;0.40;;;9.40;99.90;;;;;;4990448;28;20895;-74
2023/01/09 00:46:24;;;;;;;1.30;0.80;;;9.30;99.90;;;;;;4974254;28;20460;-74
2023/01/09 00:48:50;;;;;;;1.10;0.50;;;9.20;99.90;;;;;;4991541;28;20453;-74
2023/01/09 00:51:18;;;;;;;1.10;0.50;;;9.20;99.90;;;;;;4991454;28;20877;-74
2023/01/09 00:53:44;;;;;;;0.80;0.60;;;9.20;99.90;;;;;;4990492;28;20440;-74
2023/01/09 00:56:15;;;;;;;0.80;0.70;;;9.20;99.90;;;;;;4996539;28;20740;-73
2023/01/09 00:58:41;;;;;;;0.82;0.70;;;9.20;99.90;;;;;;4997964;28;20411;-74
2023/01/09 01:01:06;;;;;;;0.60;0.50;;;9.10;99.90;;;;;;4990997;28;20397;-73
2023/01/09 01:03:32;;;;;;;0.97;0.77;;;9.20;99.90;;;;;;4990316;28;20398;-74
2023/01/09 01:08:43;;;;;;;0.80;0.70;;;9.00;99.90;;;;;;5000525;28;20492;-73
2023/01/09 01:11:09;;;;;;;0.90;0.57;;;9.00;99.90;;;;;;4991058;28;20394;-73
2023/01/09 01:13:36;;;;;;;1.50;0.77;;;9.00;99.90;;;;;;4990092;28;20448;-73
2023/01/09 01:16:07;;;;;;;0.70;0.50;;;8.90;99.90;;;;;;4990975;28;20395;-73
2023/01/09 01:18:32;;;;;;;1.40;0.45;;;9.00;99.90;;;;;;5003762;28;20441;-73
2023/01/09 01:20:58;;;;;;;0.40;0.30;;;8.90;99.90;;;;;;5010544;28;20760;-73
2023/01/09 01:23:24;;;;;;;0.60;0.40;;;8.90;99.90;;;;;;5001702;28;20486;-73
2023/01/09 01:25:50;;;;;;;0.90;0.50;;;8.90;99.90;;;;;;5028700;22;20851;-71
2023/01/09 01:28:15;;;;;;;0.50;0.32;;;8.90;99.90;;;;;;5010271;28;20388;-70
2023/01/09 01:30:41;;;;;;;0.60;0.40;;;8.80;99.90;;;;;;5010562;28;20883;-70
2023/01/09 01:33:08;;;;;;;0.70;0.40;;;8.90;99.90;;;;;;5009569;28;20396;-70
2023/01/09 01:35:34;;;;;;;1.80;0.60;;;9.00;99.90;;;;;;5010266;28;20392;-70
2023/01/09 01:38:00;;;;;;;0.73;0.50;;;9.00;99.90;;;;;;5009927;28;20413;-70
2023/01/09 01:40:26;;;;;;;0.50;0.40;;;8.90;99.90;;;;;;5010117;28;20400;-72
2023/01/09 01:42:53;;;;;;;0.95;0.50;;;8.90;99.90;;;;;;5009537;28;20732;-71
2023/01/09 01:45:27;;;;;;;0.60;0.50;;;8.90;99.90;;;;;;5010217;28;20424;-71
2023/01/09 01:48:01;;;;;;;0.60;0.40;;;9.00;99.90;;;;;;5009820;28;20400;-71
2023/01/09 01:50:47;;;;;;;0.73;0.50;;;9.00;99.90;;;;;;5010355;28;20389;-70
2023/01/09 01:53:20;;;;;;;1.60;0.70;;;9.00;99.90;;;;;;5009461;28;20377;-70
2023/01/09 01:56:04;;;;;;;0.50;0.50;;;9.10;99.90;;;;;;5010120;28;20420;-72
2023/01/09 01:58:31;;;;;;;0.90;0.60;;;9.00;99.90;;;;;;4994885;28;20400;-71
2023/01/09 02:00:57;;;;;;;0.88;0.50;;;9.00;99.90;;;;;;5010709;28;20392;-68
2023/01/09 02:03:27;;;;;;;0.57;0.52;;;9.00;99.90;;;;;;5009810;28;20395;-70
2023/01/09 02:05:52;;;;;;;0.67;0.50;;;9.10;99.90;;;;;;5010230;28;20393;-69
2023/01/09 02:08:19;;;;;;;1.20;0.90;;;9.00;99.90;;;;;;5003466;28;20395;-70
2023/01/09 02:10:45;;;;;;;0.50;0.47;;;9.00;99.90;;;;;;4990566;28;20714;-68
2023/01/09 02:13:12;;;;;;;0.43;0.37;;;8.90;99.90;;;;;;4990250;28;20462;-70
2023/01/09 02:16:10;;;;;;;1.50;0.50;;;8.90;99.90;;;;;;5012910;28;20404;-69
2023/01/09 02:19:14;;;;;;;1.00;0.40;;;8.90;99.90;;;;;;4982748;28;20460;-68
2023/01/09 02:21:57;;;;;;;2.30;0.50;;;8.90;99.90;;;;;;4953065;29;20487;-70
2023/01/09 02:24:47;;;;;;;1.50;0.50;;;9.00;99.90;;;;;;5008073;28;20740;-71
2023/01/09 02:27:42;;;;;;;0.60;0.50;;;9.00;99.90;;;;;;5012788;28;20451;-71
2023/01/09 02:30:23;;;;;;;0.50;0.35;;;8.90;99.90;;;;;;4982531;28;20389;-71
2023/01/09 02:33:32;;;;;;;0.90;0.50;;;9.00;99.90;;;;;;5012822;28;20881;-70
2023/01/09 02:36:17;;;;;;;0.70;0.40;;;8.90;99.90;;;;;;5013312;28;20392;-69
2023/01/09 02:39:21;;;;;;;0.50;0.43;;;8.90;99.90;;;;;;5013127;28;20421;-69
2023/01/09 02:42:15;;;;;;;1.80;0.40;;;8.90;99.90;;;;;;5013290;28;20786;-70
2023/01/09 02:44:41;;;;;;;0.90;0.40;;;8.80;99.90;;;;;;5011958;28;20396;-69
2023/01/09 02:47:16;;;;;;;0.80;0.50;;;8.80;99.90;;;;;;5013101;28;20397;-71
2023/01/09 02:49:45;;;;;;;0.90;0.40;;;8.80;99.90;;;;;;5013096;28;20902;-70
2023/01/09 02:52:26;;;;;;;0.75;0.50;;;8.80;99.90;;;;;;5011882;28;20388;-69
2023/01/09 02:55:16;;;;;;;0.70;0.40;;;8.70;99.90;;;;;;5012421;28;20509;-71
2023/01/09 02:58:08;;;;;;;0.40;0.32;;;8.80;99.90;;;;;;5012881;28;20441;-71
2023/01/09 03:00:48;;;;;;;1.50;0.40;;;8.80;99.90;;;;;;5012947;28;20878;-71
2023/01/09 03:03:21;;;;;;;0.70;0.40;;;8.80;99.90;;;;;;5012249;28;20736;-71
2023/01/09 03:05:56;;;;;;;1.10;0.40;;;8.70;99.90;;;;;;5012398;28;20397;-71
2023/01/09 03:08:36;;;;;;;0.50;0.40;;;8.70;99.90;;;;;;5011108;28;20404;-71
2023/01/09 03:11:06;;;;;;;1.00;0.40;;;8.70;99.90;;;;;;5012663;28;20762;-70
2023/01/09 03:13:43;;;;;;;0.70;0.40;;;8.70;99.90;;;;;;5011980;28;20472;-71
2023/01/09 03:16:12;;;;;;;0.80;0.57;;;8.60;99.90;;;;;;5012312;28;20488;-70
2023/01/09 03:18:38;;;;;;;0.50;0.40;;;8.60;99.90;;;;;;5012505;28;20494;-70
2023/01/09 03:21:06;;;;;;;1.08;0.50;;;8.60;99.90;;;;;;5012452;28;20451;-71
2023/01/09 03:23:49;;;;;;;0.60;0.40;;;8.50;99.90;;;;;;5011963;28;20377;-71
2023/01/09 03:26:15;;;;;;;0.70;0.50;;;8.40;99.90;;;;;;5011154;28;20450;-71
2023/01/09 03:28:41;;;;;;;0.50;0.40;;;8.40;99.90;;;;;;5012180;28;20389;-71
2023/01/09 03:31:07;;;;;;;0.60;0.50;;;8.30;99.90;;;;;;4994727;28;20459;-70
2023/01/09 03:33:33;;;;;;;1.35;0.40;;;8.30;99.90;;;;;;5011449;28;20392;-71
2023/01/09 03:35:58;;;;;;;2.00;0.40;;;8.30;99.90;;;;;;5012000;28;20464;-70
2023/01/09 03:38:24;;;;;;;0.60;0.40;;;8.30;99.90;;;;;;5012150;28;20405;-71
2023/01/09 03:40:50;;;;;;;0.50;0.40;;;8.20;99.90;;;;;;5012285;28;20412;-70
2023/01/09 03:43:16;;;;;;;0.60;0.40;;;8.20;99.90;;;;;;5009952;28;20402;-71
2023/01/09 03:45:41;;;;;;;1.50;0.50;;;8.20;99.90;;;;;;5011309;28;20867;-71
2023/01/09 03:48:07;;;;;;;0.65;0.32;;;8.20;99.90;;;;;;5012188;28;20396;-71
2023/01/09 03:50:32;;;;;;;0.50;0.30;;;8.10;99.90;;;;;;5012088;28;20412;-71
2023/01/09 03:52:58;;;;;;;0.50;0.40;;;8.10;99.90;;;;;;5011420;28;20389;-71
2023/01/09 03:55:23;;;;;;;0.50;0.30;;;8.10;1.00;;;;;;5011925;28;20906;-71
2023/01/09 03:57:51;;;;;;;1.10;0.40;;;8.00;1.00;;;;;;5011815;28;20496;-72
2023/01/09 04:00:18;;;;;;;1.00;0.30;;;7.90;1.00;;;;;;5011215;28;20940;-71
2023/01/09 04:02:43;;;;;;;2.00;0.50;;;7.90;1.00;;;;;;5011209;28;20462;-72
2023/01/09 04:05:09;;;;;;;0.40;0.30;;;7.80;1.00;;;;;;5011590;28;20392;-72
2023/01/09 04:07:35;;;;;;;1.77;0.40;;;7.70;1.00;;;;;;5011709;28;20391;-71
2023/01/09 04:10:00;;;;;;;0.50;0.23;;;7.70;1.00;;;;;;5011788;28;20421;-71
2023/01/09 04:12:26;;;;;;;1.50;0.30;;;7.70;1.00;;;;;;5010973;28;20867;-71
2023/01/09 04:14:51;;;;;;;1.10;0.30;;;7.60;1.00;;;;;;5011005;28;20401;-71
2023/01/09 04:17:17;;;;;;;0.90;0.40;;;7.60;1.00;;;;;;5011572;28;20396;-70
2023/01/09 04:19:45;;;;;;;0.90;0.40;;;7.50;1.00;;;;;;5011750;28;20459;-73
2023/01/09 04:22:10;;;;;;;0.80;0.30;;;7.50;1.00;;;;;;5011448;28;20389;-72
2023/01/09 04:24:36;;;;;;;0.60;0.50;;;7.40;1.00;;;;;;5010486;28;20408;-72
2023/01/09 04:27:01;;;;;;;0.63;0.40;;;7.40;1.00;;;;;;5011485;28;20791;-71
2023/01/09 04:29:27;;;;;;;0.50;0.40;;;7.40;17.40;;;;;;5011127;28;21069;-71
2023/01/09 04:31:52;;;;;;;0.90;0.40;;;7.40;1.00;;;;;;5011513;28;20384;-72
2023/01/09 04:34:18;;;;;;;1.60;0.30;;;7.40;1.00;;;;;;5010597;28;20560;-72
2023/01/09 04:36:44;;;;;;;0.60;0.40;;;7.30;25.50;;;;;;5011187;28;20409;-71
2023/01/09 04:39:09;;;;;;;0.68;0.40;;;7.30;41.20;;;;;;5012040;28;20809;-71
2023/01/09 04:41:50;;;;;;;0.40;0.30;;;7.30;59.60;;;;;;5011620;28;20396;-71
2023/01/09 04:44:21;;;;;;;0.50;0.40;;;7.20;27.90;;;;;;5010486;28;20479;-71
2023/01/09 04:46:47;;;;;;;0.50;0.40;;;7.20;27.70;;;;;;5011300;28;20848;-71
2023/01/09 04:49:13;;;;;;;0.90;0.50;;;7.10;39.30;;;;;;5011521;28;20393;-71
2023/01/09 04:51:38;;;;;;;0.80;0.40;;;7.10;24.60;;;;;;5011091;28;20396;-71
2023/01/09 04:54:04;;;;;;;0.80;0.40;;;7.10;31.20;;;;;;5010500;28;20936;-71
2023/01/09 04:56:30;;;;;;;0.50;0.40;;;7.10;15.20;;;;;;5011056;28;20471;-70
2023/01/09 04:58:55;;;;;;;1.50;0.60;;;7.00;64.40;;;;;;5011175;28;20894;-70
2023/01/09 05:01:21;;;;;;;1.88;0.50;;;7.00;99.90;;;;;;5010912;28;20439;-71
2023/01/09 05:03:46;;;;;;;1.60;0.40;;;6.90;99.90;;;;;;5010305;28;20424;-71
2023/01/09 05:06:12;;;;;;;0.83;0.40;;;6.90;99.90;;;;;;5011051;28;20957;-70
2023/01/09 05:08:37;;;;;;;2.20;0.60;;;6.90;99.90;;;;;;5011208;28;20401;-71
2023/01/09 05:11:03;;;;;;;1.20;0.47;;;6.90;99.90;;;;;;5010703;28;20396;-70
2023/01/09 05:13:29;;;;;;;0.67;0.40;;;6.90;88.00;;;;;;5010093;28;20446;-71
2023/01/09 05:15:54;;;;;;;0.70;0.30;;;6.90;62.20;;;;;;5011073;28;20472;-71
2023/01/09 05:18:20;;;;;;;0.77;0.43;;;6.90;36.80;;;;;;5011186;28;20842;-72
2023/01/09 05:20:45;;;;;;;2.20;0.60;;;6.80;90.60;;;;;;5011008;28;20401;-71
2023/01/09 05:23:11;;;;;;;1.00;0.60;;;6.80;34.80;;;;;;5010230;28;20384;-71
2023/01/09 05:25:36;;;;;;;1.00;0.40;;;6.80;17.40;;;;;;5010435;28;20586;-71
2023/01/09 05:28:02;;;;;;;2.03;0.60;;;6.80;13.40;;;;;;5010735;28;20434;-71
2023/01/09 05:30:28;;;;;;;1.10;0.60;;;6.90;1.00;;;;;;5010784;28;20380;-72
2023/01/09 05:32:53;;;;;;;2.38;0.80;;;6.90;1.00;;;;;;5010535;28;20392;-71
2023/01/09 05:35:19;;;;;;;1.50;0.60;;;7.00;1.00;;;;;;5010439;28;20385;-71
2023/01/09 05:37:45;;;;;;;0.65;0.45;;;6.90;1.00;;;;;;5010050;28;20408;-71
2023/01/09 05:40:11;;;;;;;1.10;0.60;;;6.90;1.00;;;;;;5001956;28;20397;-71
2023/01/09 05:42:37;;;;;;;1.70;0.80;;;6.90;1.00;;;;;;5004107;28;20495;-71
2023/01/09 05:45:04;;;;;;;2.30;0.70;;;6.90;1.00;;;;;;5003430;28;20949;-71
2023/01/09 05:47:29;;;;;;;1.73;0.70;;;6.90;1.00;;;;;;5002760;28;20508;-71
2023/01/09 05:49:55;;;;;;;2.33;0.60;;;6.90;1.00;;;;;;5008699;28;20487;-72
2023/01/09 05:52:21;;;;;;;1.55;0.60;;;6.80;1.00;;;;;;5005909;28;20396;-72
2023/01/09 05:54:47;;;;;;;2.03;0.70;;;6.80;1.00;;;;;;5009295;28;20458;-72
2023/01/09 05:57:12;;;;;;;2.60;0.80;;;6.80;1.00;;;;;;5005588;28;20390;-71
2023/01/09 05:59:38;;;;;;;1.33;0.80;;;6.70;1.00;;;;;;5005075;28;20503;-72
2023/01/09 06:02:03;;;;;;;1.63;0.90;;;6.80;1.00;;;;;;5014194;28;20393;-72
2023/01/09 06:04:29;;;;;;;2.00;0.67;;;6.80;1.00;;;;;;5013292;28;20412;-72
2023/01/09 06:06:55;;;;;;;4.60;1.00;;;6.80;1.00;;;;;;4994701;28;20461;-72
2023/01/09 06:09:21;;;;;;;2.60;0.70;;;6.90;1.00;;;;;;5013996;28;20897;-72
2023/01/09 06:11:46;;;;;;;3.05;0.73;;;6.90;2.30;;;;;;5013829;28;20393;-72
2023/01/09 06:14:12;;;;;;;2.08;0.80;;;7.00;1.00;;;;;;5013283;28;20397;-71
2023/01/09 06:16:38;;;;;;;1.20;0.60;;;7.00;1.00;;;;;;5014037;28;20388;-72
2023/01/09 06:19:04;;;;;;;4.00;1.03;;;6.90;1.00;;;;;;5013754;28;20473;-72
2023/01/09 06:21:31;;;;;;;1.90;0.73;;;7.00;1.00;;;;;;5014152;28;20465;-71
2023/01/09 06:23:56;;;;;;;1.60;0.80;;;6.90;1.00;;;;;;5002632;28;20533;-72
2023/01/09 06:26:23;;;;;;;2.55;1.15;;;7.00;1.00;;;;;;5007318;28;20455;-71
2023/01/09 06:28:48;;;;;;;3.20;0.80;;;7.10;1.00;;;;;;5011774;28;20393;-72
2023/01/09 06:31:14;;;;;;;2.50;0.80;;;7.00;1.00;;;;;;5008875;28;20408;-72
2023/01/09 06:33:40;;;;;;;2.85;1.50;;;7.10;1.00;;;;;;5011851;28;20393;-72
2023/01/09 06:36:06;;;;;;;3.80;0.80;;;7.10;1.00;;;;;;5013743;28;20396;-72
2023/01/09 06:38:32;;;;;;;4.70;1.70;;;6.90;1.00;;;;;;5012300;28;20925;-72
2023/01/09 06:40:57;;;;;;;2.37;0.90;;;6.90;1.00;;;;;;5013657;28;20467;-72
2023/01/09 06:43:23;;;;;;;1.77;0.73;;;6.90;1.00;;;;;;4995874;28;20401;-71
2023/01/09 06:45:48;;;;;;;2.37;0.77;;;7.10;1.00;;;;;;5013409;28;20911;-72
2023/01/09 06:48:14;;;;;;;2.37;0.63;;;7.10;1.00;;;;;;5013559;28;20473;-72
2023/01/09 06:50:39;;;;;;;4.10;1.00;;;7.20;1.00;;;;;;5013428;28;20407;-71
2023/01/09 06:53:05;;;;;;;3.53;0.90;;;7.30;99.90;;;;;;5012750;28;20392;-71
2023/01/09 06:55:31;;;;;;;4.25;1.50;;;7.30;99.90;;;;;;5013528;28;20472;-71
2023/01/09 06:57:56;;;;;;;3.42;0.88;;;7.20;99.90;;;;;;5013534;28;20470;-72
2023/01/09 07:00:22;;;;;;;2.35;0.80;;;7.20;99.90;;;;;;5013054;28;20393;-72
2023/01/09 07:02:47;;;;;;;2.50;0.63;;;7.20;99.90;;;;;;5012532;28;20385;-72
2023/01/09 07:05:13;;;;;;;3.40;0.90;;;7.30;99.90;;;;;;5013257;28;20389;-73
2023/01/09 07:07:40;;;;;;;2.40;0.73;;;7.20;99.90;;;;;;5011521;28;20389;-70
2023/01/09 07:10:06;;;;;;;3.03;0.80;;;7.20;60.80;;;;;;4993510;28;20393;-71
2023/01/09 07:12:32;;;;;;;4.53;0.90;;;7.30;99.90;;;;;;4993047;28;20383;-72
2023/01/09 07:14:57;;;;;;;1.83;0.80;;;7.30;99.90;;;;;;4993240;28;20397;-72
2023/01/09 07:17:23;;;;;;;4.33;0.80;;;7.30;99.90;;;;;;5009045;28;20393;-72
2023/01/09 07:19:48;;;;;;;3.20;0.97;;;7.40;43.70;;;;;;5012861;28;20408;-72
2023/01/09 07:22:14;;;;;;;3.80;1.10;;;7.40;1.00;;;;;;5012541;28;20384;-72
2023/01/09 07:24:39;;;;;;;2.90;0.70;;;7.40;91.10;;;;;;5033686;22;20483;-72
2023/01/09 07:27:05;;;;;;;4.18;0.80;;;7.40;21.00;;;;;;5012948;28;20496;-75
2023/01/09 07:29:31;;;;;;;2.83;1.42;;;8.20;1.00;;;;;;5012799;28;20904;-71
2023/01/09 07:31:56;;;;;;;5.15;0.90;;;7.50;1.00;;;;;;5012910;28;20886;-71
2023/01/09 07:34:22;;;;;;;6.03;1.60;;;8.00;25.70;;;;;;5009381;28;20477;-71
2023/01/09 07:36:49;;;;;;;4.00;1.20;;;7.50;1.00;;;;;;4993199;28;20393;-72
2023/01/09 07:39:15;;;;;;;3.80;1.00;;;8.00;1.00;;;;;;4992833;28;20417;-72
2023/01/09 07:41:40;;;;;;;4.67;0.97;;;7.50;1.00;;;;;;4992680;28;20842;-73
2023/01/09 07:44:06;;;;;;;4.83;0.93;;;7.50;1.00;;;;;;4992072;28;20387;-73
2023/01/09 07:46:32;;;;;;;5.47;1.02;;;7.50;1.00;;;;;;4993190;28;20385;-74
2023/01/09 07:48:58;;;;;;;3.20;1.00;;;7.50;1.00;;;;;;4992808;28;20394;-72
2023/01/09 07:51:23;;;;;;;5.25;1.20;;;7.50;1.00;;;;;;4992286;28;20417;-72
2023/01/09 07:53:49;;;;;;;3.67;1.17;;;7.50;1.00;;;;;;4991946;28;20474;-72
2023/01/09 07:56:14;;;;;;;5.47;1.20;;;7.50;1.00;;;;;;4993067;28;20389;-71
2023/01/09 07:58:40;;;;;;;2.53;0.80;;;7.50;99.90;;;;;;4992510;28;20912;-72
2023/01/09 08:01:05;;;;;;;3.60;1.53;;;7.50;99.90;;;;;;4992848;28;20440;-72
2023/01/09 08:03:32;;;;;;;2.57;0.83;;;7.50;99.90;;;;;;4991526;28;20394;-71
2023/01/09 08:05:58;;;;;;;5.78;1.30;;;7.60;99.90;;;;;;4992359;28;20389;-72
2023/01/09 08:08:24;;;;;;;4.47;1.05;;;7.60;1.00;;;;;;4992076;28;20405;-72
2023/01/09 08:10:49;;;;;;;5.03;1.10;;;7.60;99.90;;;;;;4991959;28;20402;-72
2023/01/09 08:13:15;;;;;;;5.18;2.35;;;7.50;1.00;;;;;;4991272;28;20420;-72
2023/01/09 08:15:41;;;;;;;3.55;1.02;;;7.50;99.90;;;;;;4974876;28;20398;-71
2023/01/09 08:18:06;;;;;;;3.10;1.30;;;7.50;99.90;;;;;;4991979;28;20956;-71
2023/01/09 08:20:32;;;;;;;1.10;0.70;;;7.60;99.90;;;;;;4992105;28;20962;-72
2023/01/09 08:22:57;;;;;;;1.73;0.73;;;7.60;1.00;;;;;;4991438;28;20454;-71
2023/01/09 08:25:23;;;;;;;4.93;0.90;;;7.60;1.00;;;;;;4991933;28;20764;-72
2023/01/09 08:27:49;;;;;;;3.60;0.90;;;7.60;1.00;;;;;;4991828;28;20406;-72
2023/01/09 08:30:15;;;;;;;2.13;0.90;;;7.60;99.90;;;;;;4992038;28;20390;-72
2023/01/09 08:32:41;;;;;;;1.60;0.70;;;7.60;99.90;;;;;;4991423;28;20424;-72
2023/01/09 08:35:07;;;;;;;3.63;0.80;;;7.60;1.00;;;;;;4991915;28;21099;-71
2023/01/09 08:37:33;;;;;;;2.58;1.00;;;7.50;1.00;;;;;;4991365;28;20402;-72
2023/01/09 08:39:59;;;;;;;4.10;1.20;;;7.50;1.00;;;;;;4991672;28;20950;-72
2023/01/09 08:47:55;;;;;;;5.45;1.40;;;7.60;1.00;;;;;;4991768;28;20560;-71
2023/01/09 08:50:21;;;;;;;2.63;0.93;;;7.60;40.50;;;;;;4991703;28;20876;-72
2023/01/09 08:52:46;;;;;;;3.90;1.00;;;7.70;1.00;;;;;;4990728;28;20410;-72
2023/01/09 08:55:12;;;;;;;3.30;1.10;;;7.80;1.00;;;;;;4991638;28;20390;-72
2023/01/09 08:57:46;;;;;;;5.90;1.87;;;7.80;1.00;;;;;;4990358;28;20398;-72
2023/01/09 09:00:13;;;;;;;3.87;2.80;;;7.80;1.00;;;;;;4990153;28;20561;-72
2023/01/09 09:02:38;;;;;;;4.88;2.95;;;7.80;1.00;;;;;;4990382;28;20848;-71
2023/01/09 09:05:04;;;;;;;5.07;1.60;;;7.80;1.00;;;;;;4991101;28;20482;-71
2023/01/09 09:07:29;;;;;;;2.72;1.05;;;7.80;1.00;;;;;;4991383;28;20444;-72
2023/01/09 09:09:55;;;;;;;5.93;1.10;;;7.90;1.00;;;;;;4991376;28;20887;-72
2023/01/09 09:12:21;;;;;;;4.72;1.00;;;8.00;1.00;;;;;;4991438;28;20868;-71
2023/01/09 09:17:32;;;;;;;2.83;1.00;;;8.00;99.90;;;;;;4991422;28;20386;-72
2023/01/09 09:19:58;;;;;;;2.63;1.00;;;8.10;99.90;;;;;;4990933;28;20773;-72
2023/01/09 09:22:24;;;;;;;2.15;0.70;;;8.10;22.30;;;;;;4991005;28;20742;-71
2023/01/09 09:24:49;;;;;;;1.95;0.90;;;8.10;99.90;;;;;;4990722;28;20395;-71
2023/01/09 09:27:15;;;;;;;2.33;0.90;;;8.10;99.90;;;;;;4991199;28;20390;-71
2023/01/09 09:29:40;;;;;;;5.35;1.55;;;8.20;99.90;;;;;;4990794;28;20781;-71
2023/01/09 09:32:06;;;;;;;2.85;1.52;;;8.20;1.00;;;;;;4991222;28;20402;-72
2023/01/09 09:34:31;;;;;;;4.70;1.70;;;8.20;1.00;;;;;;4990045;28;20409;-72
2023/01/09 09:36:57;;;;;;;4.00;1.40;;;8.30;1.00;;;;;;4991081;28;20812;-72
2023/01/09 09:39:22;;;;;;;4.30;1.40;;;8.20;99.90;;;;;;4991064;28;20453;-71
2023/01/09 09:45:20;;;;;;;3.97;1.30;;;8.30;1.10;;;;;;4990166;28;20769;-71
2023/01/09 09:48:27;;;;;;;3.22;1.00;;;8.20;99.90;;;;;;4991074;28;20394;-72
2023/01/09 09:51:20;;;;;;;4.50;1.27;;;8.30;99.90;;;;;;4982778;28;20394;-72
2023/01/09 09:54:05;;;;;;;4.18;1.13;;;8.30;99.90;;;;;;4988737;28;20405;-72
2023/01/09 09:56:38;;;;;;;3.97;0.80;;;8.40;99.90;;;;;;4990829;28;20445;-72
2023/01/09 09:59:14;;;;;;;4.15;1.00;;;8.40;1.00;;;;;;5005993;28;20488;-72
2023/01/09 10:01:44;;;;;;;3.65;1.27;;;8.40;99.90;;;;;;4990930;28;20812;-72
2023/01/09 10:04:15;;;;;;;6.25;1.20;;;8.40;1.00;;;;;;4989603;28;20398;-72
2023/01/09 10:06:47;;;;;;;3.85;1.30;;;8.40;1.00;;;;;;4990680;28;20399;-71
2023/01/09 10:09:27;;;;;;;5.53;1.50;;;8.40;99.90;;;;;;4989828;28;20465;-72
2023/01/09 10:12:15;;;;;;;3.75;1.20;;;8.60;4.80;;;;;;4991267;28;20398;-73
2023/01/09 10:14:41;;;;;;;4.00;1.10;;;8.60;54.80;;;;;;4953349;28;20451;-72
2023/01/09 10:17:25;;;;;;;4.03;1.30;;;8.70;44.20;;;;;;4971366;28;20432;-73
2023/01/09 10:20:05;;;;;;;1.48;0.90;;;8.70;1.00;;;;;;4971228;28;20439;-73
2023/01/09 10:23:00;;;;;;;2.83;1.20;;;8.60;8.00;;;;;;4978378;28;20398;-72
2023/01/09 10:25:39;;;;;;;3.90;1.25;;;8.60;1.00;;;;;;4990396;28;20391;-72
2023/01/09 10:28:31;;;;;;;4.20;1.40;;;8.50;99.90;;;;;;4989568;28;20511;-72
2023/01/09 10:31:04;;;;;;;6.22;1.70;;;8.40;99.90;;;;;;4990713;28;20397;-72
2023/01/09 10:33:57;;;;;;;4.32;1.00;;;8.40;1.00;;;;;;4989713;28;20413;-72
2023/01/09 10:36:39;;;;;;;3.80;1.10;;;8.40;1.00;;;;;;4993910;28;20485;-73
2023/01/09 10:39:11;;;;;;;5.20;1.08;;;8.40;1.00;;;;;;4993732;28;20805;-72
2023/01/09 10:41:57;;;;;;;5.40;1.30;;;8.40;1.00;;;;;;4994154;28;20756;-72
2023/01/09 10:44:36;;;;;;;4.40;1.25;;;8.30;99.90;;;;;;4993212;28;20819;-72
2023/01/09 10:47:07;;;;;;;1.60;1.07;;;8.30;99.90;;;;;;4994149;28;20383;-73
2023/01/09 10:49:34;;;;;;;3.00;1.20;;;8.30;99.90;;;;;;4993794;28;20434;-73
2023/01/09 10:52:12;;;;;;;3.92;0.93;;;8.30;1.00;;;;;;4993805;28;20387;-72
2023/01/09 10:54:50;;;;;;;3.00;1.30;;;8.20;1.00;;;;;;4992694;28;20406;-72
2023/01/09 10:57:28;;;;;;;2.58;1.00;;;8.10;1.00;;;;;;4993897;28;20418;-72
2023/01/09 10:59:55;;;;;;;2.70;1.30;;;7.70;99.90;;;;;;4993651;28;20485;-73
2023/01/09 11:02:30;;;;;;;3.90;1.10;;;7.40;99.90;;;;;;4993520;28;20965;-73
2023/01/09 11:04:56;;;;;;;2.47;1.00;;;7.20;99.90;;;;;;4992799;28;20402;-72
2023/01/09 11:07:35;;;;;;;1.60;0.80;;;6.90;99.90;;;;;;4993183;28;20772;-72
2023/01/09 11:10:07;;;;;;;2.28;0.73;;;6.80;99.90;;;;;;4989701;28;20410;-72
2023/01/09 11:12:34;;;;;;;0.80;0.50;;;6.80;99.90;;;;;;4993064;28;20490;-71
2023/01/09 11:15:18;;;;;;;0.60;0.50;;;6.90;99.90;;;;;;4993470;28;20395;-73
2023/01/09 11:17:49;;;;;;;1.70;0.70;;;6.90;99.90;;;;;;4986996;28;20402;-73
2023/01/09 11:20:19;;;;;;;2.00;0.50;;;6.90;99.90;;;;;;4992811;28;20410;-72
2023/01/09 11:22:46;;;;;;;2.00;0.77;;;7.00;99.90;;;;;;4992444;28;20418;-73
2023/01/09 11:25:14;;;;;;;1.13;0.47;;;7.10;99.90;;;;;;4992980;28;20394;-72
2023/01/09 11:27:40;;;;;;;2.80;0.90;;;7.10;99.90;;;;;;4993280;28;20422;-72
2023/01/09 11:30:08;;;;;;;1.33;0.70;;;7.10;99.90;;;;;;4992949;28;20976;-73
2023/01/09 11:32:34;;;;;;;2.00;0.80;;;7.00;99.90;;;;;;4992091;28;20394;-73
2023/01/09 11:35:03;;;;;;;1.60;0.80;;;7.10;99.90;;;;;;4992609;28;20403;-71
2023/01/09 11:37:30;;;;;;;1.02;0.73;;;7.10;99.90;;;;;;4992985;28;20395;-71
2023/01/09 11:39:59;;;;;;;1.42;0.60;;;7.10;99.90;;;;;;4993067;28;20456;-72
2023/01/09 11:45:32;;;;;;;1.27;0.70;;;7.00;99.90;;;;;;4992968;28;20465;-72
2023/01/09 11:47:58;;;;;;;1.60;0.60;;;7.10;99.90;;;;;;4992188;28;20414;-71
2023/01/09 11:50:27;;;;;;;1.73;0.80;;;7.20;99.90;;;;;;4992818;28;20438;-71
2023/01/09 11:53:17;;;;;;;1.27;0.70;;;7.30;99.90;;;;;;4991813;28;20728;-70
2023/01/09 11:55:44;;;;;;;1.65;0.60;;;7.30;99.90;;;;;;4992487;28;20398;-71
2023/01/09 11:58:15;;;;;;;2.10;0.60;;;7.50;99.90;;;;;;4992549;28;20407;-71
2023/01/09 12:00:53;;;;;;;1.00;0.60;;;7.40;92.90;;;;;;4992710;28;20524;-70
2023/01/09 12:03:36;;;;;;;1.30;0.70;;;7.50;37.00;;;;;;4989748;28;20395;-70
2023/01/09 12:06:13;;;;;;;3.40;0.50;;;7.60;79.80;;;;;;4992259;28;20453;-70
2023/01/09 12:08:51;;;;;;;1.58;0.70;;;7.60;20.30;;;;;;4985634;28;20383;-70
2023/01/09 12:11:35;;;;;;;1.10;0.50;;;7.60;11.40;;;;;;4974862;28;20402;-70
2023/01/09 12:14:14;;;;;;;2.10;0.63;;;7.60;12.50;;;;;;4991283;28;20500;-70
2023/01/09 12:17:09;;;;;;;2.65;0.80;;;7.60;7.00;;;;;;4992309;28;20882;-71
2023/01/09 12:20:35;;;;;;;2.50;0.70;;;7.50;21.30;;;;;;4991911;28;20445;-71
2023/01/09 12:23:27;;;;;;;2.58;0.90;;;7.60;1.00;;;;;;4893385;29;20418;-72
2023/01/09 12:26:05;;;;;;;1.83;0.60;;;7.60;13.50;;;;;;4893885;29;20899;-72
2023/01/09 12:28:55;;;;;;;1.33;0.70;;;7.70;4.70;;;;;;4954057;28;20415;-72
2023/01/09 12:31:51;;;;;;;1.23;0.90;;;7.70;9.00;;;;;;4992196;28;20390;-72
2023/01/09 12:34:51;;;;;;;3.13;0.90;;;7.90;1.00;;;;;;4991012;28;20511;-71
2023/01/09 12:37:38;;;;;;;2.13;0.83;;;8.00;1.00;;;;;;4990672;28;20398;-72
2023/01/09 12:40:15;;;;;;;2.28;1.30;;;8.20;1.00;;;;;;4991866;28;20461;-71
2023/01/09 12:42:52;;;;;;;2.80;0.70;;;8.10;1.00;;;;;;4991052;28;20390;-72
2023/01/09 12:45:33;;;;;;;4.70;1.20;;;8.30;1.00;;;;;;4991537;28;20426;-71
2023/01/09 12:48:18;;;;;;;2.75;1.10;;;8.20;1.00;;;;;;4990576;28;20861;-72
2023/01/09 12:50:50;;;;;;;3.60;1.10;;;8.10;1.00;;;;;;4991499;28;20414;-71
2023/01/09 12:53:39;;;;;;;4.55;1.45;;;8.00;48.80;;;;;;4990246;28;20405;-72
2023/01/09 12:56:20;;;;;;;1.30;0.90;;;8.00;36.10;;;;;;4991385;28;20749;-71
2023/01/09 12:58:50;;;;;;;3.60;1.45;;;8.00;1.00;;;;;;4979682;28;20414;-71
2023/01/09 13:01:23;;;;;;;3.78;1.50;;;8.20;1.00;;;;;;4972134;28;20483;-71
2023/01/09 13:03:51;;;;;;;4.28;1.10;;;8.40;1.00;;;;;;4984041;28;20453;-71
2023/01/09 13:06:20;;;;;;;2.58;1.20;;;8.40;1.00;;;;;;4991311;28;20398;-71
2023/01/09 13:09:11;;;;;;;2.20;1.30;;;8.40;1.00;;;;;;4991291;28;20394;-71
2023/01/09 13:11:44;;;;;;;3.72;1.10;;;8.30;1.00;;;;;;4991460;28;20386;-71
2023/01/09 13:14:16;;;;;;;4.57;1.30;;;8.20;1.00;;;;;;4990981;28;20410;-71
2023/01/09 13:16:47;;;;;;;5.32;1.70;;;8.20;1.00;;;;;;4991214;28;20410;-72
2023/01/09 13:19:33;;;;;;;3.57;1.20;;;8.10;1.00;;;;;;4991136;28;20421;-72
2023/01/09 13:21:59;;;;;;;4.50;1.60;;;8.10;1.00;;;;;;4991210;28;20382;-71
2023/01/09 13:24:46;;;;;;;3.72;1.40;;;8.00;1.00;;;;;;4989935;28;20391;-71
2023/01/09 13:27:21;;;;;;;6.28;1.08;;;8.10;1.00;;;;;;4991000;28;20445;-70
2023/01/09 13:29:54;;;;;;;2.67;1.10;;;8.10;1.00;;;;;;5006257;28;20387;-72
2023/01/09 13:32:42;;;;;;;1.90;1.13;;;7.20;99.90;;;;;;4991095;28;20398;-70
2023/01/09 13:35:14;;;;;;;1.40;1.00;;;6.80;99.90;;;;;;4987134;28;20829;-70
2023/01/09 13:37:41;;;;;;;4.27;1.10;;;6.60;99.90;;;;;;4991022;28;20390;-70